Vielsalm, Belgium
Current Conditions -  °F | °C
As of 7:25 AM on Friday 28 Nov 2014 (Local Time) from EBLB Reporting Station
Broken Clouds Broken Clouds  
Wind Chill: 43°   Ceiling: 6000
Heat Index: 43°   Visibility: 6mi
Dew Point: 41°   Wind: 3mph
Humidity: 93%   Direction: 50°NE
Pressure: 29.74"   Gusts: NA
Location:  50.28°N, 5.92°E
Report Text: EBLB 280625Z AUTO 05003KT 9999 BKN060/// BKN090/// 06/05 Q1007 BLU
Loading
Personal Weather Stations






























Interactive Weather Map New forecast layout! Learn more

10-Day Weather Forecast

Advertisements
Track Severe Weather on mobile